createdAt,value
2023-01-13T00:02:15.643Z,8.80
2023-01-13T00:07:17.157Z,8.80
2023-01-13T00:12:18.655Z,8.70
2023-01-13T00:17:20.169Z,8.80
2023-01-13T00:22:21.685Z,8.80
2023-01-13T00:27:23.193Z,8.80
2023-01-13T00:32:24.715Z,8.80
2023-01-13T00:37:26.257Z,8.90
2023-01-13T00:42:27.760Z,8.90
2023-01-13T00:47:29.279Z,8.90
2023-01-13T00:52:30.773Z,8.90
2023-01-13T00:57:32.293Z,8.90
2023-01-13T01:02:33.839Z,8.80
2023-01-13T01:07:35.413Z,8.80
2023-01-13T01:12:36.959Z,8.70
2023-01-13T01:17:38.465Z,8.70
2023-01-13T01:22:39.972Z,8.60
2023-01-13T01:27:41.483Z,8.60
2023-01-13T01:32:43.059Z,8.60
2023-01-13T01:37:44.568Z,8.60
2023-01-13T01:42:46.072Z,8.60
2023-01-13T01:47:47.596Z,8.70
2023-01-13T01:52:49.120Z,8.70
2023-01-13T01:57:50.626Z,8.70
2023-01-13T02:02:52.113Z,8.80
2023-01-13T02:07:53.624Z,8.80
2023-01-13T02:12:55.136Z,8.80
2023-01-13T02:17:56.637Z,8.90
2023-01-13T02:22:58.232Z,8.90
2023-01-13T02:27:59.781Z,8.90
2023-01-13T02:33:01.431Z,9.00
2023-01-13T02:38:02.949Z,9.00
2023-01-13T02:43:04.469Z,9.00
2023-01-13T02:48:05.991Z,8.90
2023-01-13T02:53:07.497Z,8.90
2023-01-13T02:58:09.002Z,8.90
2023-01-13T03:03:10.450Z,8.90
2023-01-13T03:08:11.926Z,8.90
2023-01-13T03:13:13.361Z,8.90
2023-01-13T03:18:14.819Z,8.90
2023-01-13T03:23:16.280Z,8.90
2023-01-13T03:28:17.754Z,8.80
2023-01-13T03:33:19.207Z,8.70
2023-01-13T03:38:20.670Z,8.80
2023-01-13T03:43:22.104Z,8.70
2023-01-13T03:48:23.539Z,8.70
2023-01-13T03:53:24.968Z,8.80
2023-01-13T03:58:26.400Z,8.80
2023-01-13T04:03:27.902Z,8.80
2023-01-13T04:08:29.364Z,8.80
2023-01-13T04:13:30.785Z,8.70
2023-01-13T04:18:32.223Z,8.60
2023-01-13T04:23:33.664Z,8.60
2023-01-13T04:28:35.099Z,8.60
2023-01-13T04:33:36.557Z,8.60
2023-01-13T04:38:38.016Z,8.70
2023-01-13T04:43:39.452Z,8.80
2023-01-13T04:48:40.881Z,8.80
2023-01-13T04:53:42.300Z,8.80
2023-01-13T04:58:43.735Z,8.70
2023-01-13T05:03:45.193Z,8.60
2023-01-13T05:08:46.615Z,8.60
2023-01-13T05:13:48.080Z,8.60
2023-01-13T05:18:49.542Z,8.60
2023-01-13T05:23:50.984Z,8.60
2023-01-13T05:28:52.439Z,8.60
2023-01-13T05:33:53.878Z,8.70
2023-01-13T05:38:55.337Z,8.70
2023-01-13T05:43:56.811Z,8.70
2023-01-13T05:48:58.237Z,8.70
2023-01-13T05:53:59.667Z,8.80
2023-01-13T05:59:01.099Z,8.70
2023-01-13T06:04:02.594Z,8.70
2023-01-13T06:09:04.125Z,8.70
2023-01-13T06:14:05.578Z,8.80
2023-01-13T06:19:07.016Z,8.80
2023-01-13T06:24:08.461Z,8.80
2023-01-13T06:29:09.910Z,8.80
2023-01-13T06:34:11.394Z,8.90
2023-01-13T06:39:12.866Z,8.90
2023-01-13T06:44:14.334Z,8.90
2023-01-13T06:49:15.808Z,8.90
2023-01-13T06:54:17.283Z,8.90
2023-01-13T06:59:18.704Z,9.00
2023-01-13T07:04:20.172Z,9.00
2023-01-13T07:09:21.603Z,9.00
2023-01-13T07:14:23.120Z,9.00
2023-01-13T07:19:24.583Z,9.10
2023-01-13T07:24:26.032Z,9.10
2023-01-13T07:29:27.474Z,9.10
2023-01-13T07:34:28.900Z,9.10
2023-01-13T07:39:30.371Z,9.20
2023-01-13T07:44:31.807Z,9.20
2023-01-13T07:49:33.235Z,9.20
2023-01-13T07:54:40.634Z,9.20
2023-01-13T07:59:42.761Z,9.30
2023-01-13T08:04:45.225Z,9.30
2023-01-13T08:09:46.705Z,9.30
2023-01-13T08:14:48.137Z,9.30
2023-01-13T08:19:49.587Z,9.40
2023-01-13T08:24:51.084Z,9.40
2023-01-13T08:29:52.533Z,9.50
2023-01-13T08:34:53.964Z,9.50
2023-01-13T08:39:55.476Z,9.50
2023-01-13T08:44:56.938Z,9.50
2023-01-13T08:49:58.383Z,9.50
2023-01-13T08:54:59.822Z,9.50
2023-01-13T09:00:01.286Z,9.50
2023-01-13T09:05:02.755Z,9.50
2023-01-13T09:10:04.240Z,9.60
2023-01-13T09:15:05.964Z,9.50
2023-01-13T09:20:08.457Z,9.50
2023-01-13T09:25:10.076Z,9.40
2023-01-13T09:30:11.543Z,9.30
2023-01-13T09:35:12.993Z,9.30
2023-01-13T09:40:14.464Z,9.30
2023-01-13T09:45:15.913Z,9.40
2023-01-13T09:50:17.367Z,9.40
2023-01-13T09:55:18.829Z,9.40
2023-01-13T10:00:20.293Z,9.40
2023-01-13T10:05:21.804Z,9.50
2023-01-13T10:10:23.256Z,9.50
2023-01-13T10:15:24.726Z,9.60
2023-01-13T10:20:26.202Z,9.60
2023-01-13T10:25:27.727Z,9.70
2023-01-13T10:30:29.169Z,9.80
2023-01-13T10:35:30.635Z,10.10
2023-01-13T10:40:32.121Z,10.30
2023-01-13T10:45:33.564Z,10.40
2023-01-13T10:50:35.020Z,10.50
2023-01-13T10:55:36.450Z,10.60
2023-01-13T11:00:37.915Z,10.70
2023-01-13T11:05:39.370Z,10.70
2023-01-13T11:10:40.834Z,10.70
2023-01-13T11:15:42.405Z,10.60
2023-01-13T11:20:43.975Z,10.60
2023-01-13T11:25:45.416Z,10.60
2023-01-13T11:30:46.883Z,10.70
2023-01-13T11:35:48.325Z,10.70
2023-01-13T11:40:49.790Z,10.80
2023-01-13T11:45:51.271Z,10.70
2023-01-13T11:50:52.736Z,10.80
2023-01-13T11:55:54.202Z,10.80
2023-01-13T12:00:55.722Z,10.80
2023-01-13T12:05:57.218Z,10.80
2023-01-13T12:10:58.709Z,10.90
2023-01-13T12:16:00.187Z,10.90
2023-01-13T12:21:01.622Z,10.90
2023-01-13T12:26:03.118Z,10.90
2023-01-13T12:31:04.688Z,11.00
2023-01-13T12:36:06.186Z,11.00
2023-01-13T12:41:07.665Z,11.00
2023-01-13T12:46:09.188Z,11.00
2023-01-13T12:51:10.669Z,11.10
2023-01-13T12:56:12.147Z,11.20
2023-01-13T13:01:13.696Z,11.20
2023-01-13T13:06:15.202Z,11.30
2023-01-13T13:11:16.631Z,11.30
2023-01-13T13:16:18.124Z,11.30
2023-01-13T13:21:19.575Z,11.30
2023-01-13T13:26:21.048Z,11.20
2023-01-13T13:31:22.510Z,11.20
2023-01-13T13:36:23.971Z,11.10
2023-01-13T13:41:25.422Z,11.10
2023-01-13T13:46:26.912Z,11.00
2023-01-13T13:51:28.412Z,11.00
2023-01-13T13:56:29.902Z,10.90
2023-01-13T14:01:31.506Z,10.90
2023-01-13T14:06:33.067Z,10.90
2023-01-13T14:11:34.528Z,10.90
2023-01-13T14:16:36.472Z,10.80
2023-01-13T14:21:37.967Z,10.80
2023-01-13T14:26:39.414Z,10.60
2023-01-13T14:31:40.912Z,10.30
2023-01-13T14:36:42.390Z,10.00
2023-01-13T14:41:43.865Z,9.70
2023-01-13T14:46:45.300Z,9.50
2023-01-13T14:51:46.756Z,9.30
2023-01-13T14:56:48.199Z,9.20
2023-01-13T15:01:49.670Z,9.10
2023-01-13T15:06:51.140Z,9.10
2023-01-13T15:11:52.564Z,9.00
2023-01-13T15:16:54.039Z,8.90
2023-01-13T15:21:55.488Z,8.80
2023-01-13T15:26:56.936Z,8.80
2023-01-13T15:31:58.390Z,8.70
2023-01-13T15:36:59.824Z,8.60
2023-01-13T15:42:01.289Z,8.60
2023-01-13T15:47:02.718Z,8.60
2023-01-13T15:52:04.217Z,8.50
2023-01-13T15:57:05.696Z,8.50
2023-01-13T16:02:07.170Z,8.40
2023-01-13T16:07:08.660Z,8.30
2023-01-13T16:12:10.121Z,8.30
2023-01-13T16:17:11.587Z,8.20
2023-01-13T16:22:14.393Z,8.20
2023-01-13T16:27:16.286Z,8.10
2023-01-13T16:32:17.786Z,8.00
2023-01-13T16:37:19.304Z,8.00
2023-01-13T16:42:20.751Z,7.90
2023-01-13T16:47:22.226Z,7.80
2023-01-13T16:52:23.689Z,7.80
2023-01-13T16:57:25.163Z,7.80
2023-01-13T17:02:26.655Z,7.70
2023-01-13T17:07:28.097Z,7.70
2023-01-13T17:12:29.565Z,7.70
2023-01-13T17:17:31.052Z,7.70
2023-01-13T17:22:32.493Z,7.70
2023-01-13T17:27:33.952Z,7.60
2023-01-13T17:32:35.620Z,7.60
2023-01-13T17:37:37.518Z,7.50
2023-01-13T17:42:39.066Z,7.40
2023-01-13T17:47:40.518Z,7.30
2023-01-13T17:52:41.988Z,7.30
2023-01-13T17:57:43.442Z,7.10
2023-01-13T18:02:44.963Z,7.10
2023-01-13T18:07:46.404Z,7.00
2023-01-13T18:18:17.066Z,6.80
2023-01-13T18:23:18.655Z,6.80
2023-01-13T18:28:20.121Z,6.80
2023-01-13T18:33:21.565Z,6.70
2023-01-13T18:38:23.031Z,6.60
2023-01-13T18:43:24.464Z,6.50
2023-01-13T18:48:25.949Z,6.50
2023-01-13T18:53:27.418Z,6.60
2023-01-13T18:58:28.894Z,6.50
2023-01-13T19:03:30.732Z,6.50
2023-01-13T19:08:32.227Z,6.40
2023-01-13T19:13:33.679Z,6.20
2023-01-13T19:18:35.201Z,6.20
2023-01-13T19:23:36.650Z,6.10
2023-01-13T19:28:38.111Z,6.00
2023-01-13T19:33:39.553Z,6.10
2023-01-13T19:38:41.280Z,6.20
2023-01-13T19:43:42.939Z,6.20
2023-01-13T19:48:44.448Z,6.10
2023-01-13T19:53:45.929Z,6.00
2023-01-13T19:58:47.434Z,6.00
2023-01-13T20:03:48.975Z,5.90
2023-01-13T20:08:50.422Z,5.80
2023-01-13T20:13:51.945Z,5.70
2023-01-13T20:18:54.264Z,5.70
2023-01-13T20:23:55.746Z,5.60
2023-01-13T20:28:57.197Z,5.60
2023-01-13T20:33:58.645Z,5.60
2023-01-13T20:39:00.171Z,5.50
2023-01-13T20:44:01.610Z,5.50
2023-01-13T20:49:03.165Z,5.40
2023-01-13T20:54:04.685Z,5.50
2023-01-13T20:59:06.209Z,5.50
2023-01-13T21:04:07.726Z,5.60
2023-01-13T21:09:09.190Z,5.70
2023-01-13T21:14:10.754Z,5.70
2023-01-13T21:19:12.270Z,5.80
2023-01-13T21:24:13.691Z,5.80
2023-01-13T21:29:15.174Z,5.80
2023-01-13T21:34:16.652Z,5.70
2023-01-13T21:39:18.114Z,5.60
2023-01-13T21:44:19.549Z,5.50
2023-01-13T21:49:21.034Z,5.40
2023-01-13T21:54:22.498Z,5.30
2023-01-13T21:59:24.068Z,5.20
2023-01-13T22:04:25.500Z,5.00
2023-01-13T22:09:26.957Z,4.90
2023-01-13T22:14:28.443Z,4.80
2023-01-13T22:19:29.920Z,4.70
2023-01-13T22:24:31.364Z,4.70
2023-01-13T22:29:32.811Z,4.60
2023-01-13T22:34:34.273Z,4.60
2023-01-13T22:39:35.747Z,4.50
2023-01-13T22:44:37.165Z,4.40
2023-01-13T22:49:38.601Z,4.40
2023-01-13T22:54:40.091Z,4.50
2023-01-13T22:59:41.534Z,4.50
2023-01-13T23:04:43.011Z,4.50
2023-01-13T23:09:44.489Z,4.40
2023-01-13T23:14:45.988Z,4.30
2023-01-13T23:19:47.449Z,4.30
2023-01-13T23:24:48.888Z,4.20
2023-01-13T23:29:50.405Z,4.10
2023-01-13T23:34:51.870Z,4.00
2023-01-13T23:39:53.349Z,3.90
2023-01-13T23:44:54.796Z,3.80
2023-01-13T23:49:56.255Z,3.70
2023-01-13T23:54:57.733Z,3.70
2023-01-13T23:59:59.167Z,3.60
